createdAt,value
2018-05-21T00:00:25.804Z,58.62
2018-05-21T00:01:25.787Z,58.24
2018-05-21T00:02:25.771Z,58.34
2018-05-21T00:03:25.759Z,58.34
2018-05-21T00:04:25.750Z,58.15
2018-05-21T00:05:25.751Z,59.01
2018-05-21T00:06:25.721Z,58.62
2018-05-21T00:07:25.703Z,59.20
2018-05-21T00:08:25.687Z,59.11
2018-05-21T00:09:25.677Z,59.58
2018-05-21T00:10:25.668Z,58.81
2018-05-21T00:11:25.644Z,59.01
2018-05-21T00:12:25.629Z,59.01
2018-05-21T00:13:25.607Z,59.77
2018-05-21T00:14:25.611Z,59.48
2018-05-21T00:15:25.599Z,59.36
2018-05-21T00:16:25.586Z,59.39
2018-05-21T00:17:25.556Z,59.75
2018-05-21T00:18:25.544Z,59.75
2018-05-21T00:19:25.540Z,59.65
2018-05-21T00:20:25.508Z,59.45
2018-05-21T00:21:25.501Z,59.27
2018-05-21T00:22:25.487Z,59.27
2018-05-21T00:23:25.474Z,59.36
2018-05-21T00:24:25.459Z,59.45
2018-05-21T00:25:25.517Z,59.08
2018-05-21T00:26:25.438Z,59.36
2018-05-21T00:27:25.535Z,59.94
2018-05-21T00:28:25.520Z,60.13
2018-05-21T00:29:25.668Z,60.03
2018-05-21T00:30:25.375Z,60.03
2018-05-21T00:31:25.359Z,59.94
2018-05-21T00:32:25.346Z,60.22
2018-05-21T00:33:25.323Z,60.13
2018-05-21T00:34:25.310Z,60.32
2018-05-21T00:35:25.299Z,59.94
2018-05-21T00:36:25.289Z,59.84
2018-05-21T00:37:25.278Z,59.84
2018-05-21T00:38:25.254Z,59.94
2018-05-21T00:39:25.251Z,60.03
2018-05-21T00:40:25.227Z,60.22
2018-05-21T00:41:25.214Z,59.75
2018-05-21T00:42:25.193Z,59.84
2018-05-21T00:43:25.188Z,59.84
2018-05-21T00:44:25.180Z,59.94
2018-05-21T00:45:25.220Z,59.84
2018-05-21T00:46:25.157Z,59.84
2018-05-21T00:47:25.130Z,59.94
2018-05-21T00:48:25.107Z,59.55
2018-05-21T00:49:25.102Z,60.03
2018-05-21T00:50:25.167Z,59.55
2018-05-21T00:51:25.068Z,60.19
2018-05-21T00:52:25.052Z,59.94
2018-05-21T00:53:25.044Z,60.32
2018-05-21T00:54:25.039Z,60.70
2018-05-21T00:55:25.020Z,60.48
2018-05-21T00:56:24.992Z,60.38
2018-05-21T00:57:24.981Z,60.38
2018-05-21T00:58:24.966Z,60.58
2018-05-21T00:59:24.977Z,60.48
2018-05-21T01:00:24.936Z,60.86
2018-05-21T01:01:24.922Z,60.96
2018-05-21T01:02:24.907Z,60.86
2018-05-21T01:03:24.895Z,61.05
2018-05-21T01:04:24.880Z,60.96
2018-05-21T01:05:24.862Z,61.25
2018-05-21T01:06:24.854Z,60.96
2018-05-21T01:07:24.831Z,60.96
2018-05-21T01:08:24.832Z,60.86
2018-05-21T01:09:24.810Z,60.58
2018-05-21T01:10:24.790Z,60.38
2018-05-21T01:11:24.776Z,60.58
2018-05-21T01:12:24.760Z,60.67
2018-05-21T01:13:24.762Z,60.48
2018-05-21T01:14:24.733Z,60.38
2018-05-21T01:15:24.718Z,60.10
2018-05-21T01:16:24.698Z,59.91
2018-05-21T01:17:24.688Z,59.91
2018-05-21T01:18:24.692Z,60.10
2018-05-21T01:19:24.656Z,59.33
2018-05-21T01:20:24.842Z,59.72
2018-05-21T01:21:24.634Z,59.23
2018-05-21T01:22:24.618Z,59.33
2018-05-21T01:23:24.599Z,59.23
2018-05-21T01:24:24.582Z,59.62
2018-05-21T01:25:24.564Z,59.72
2018-05-21T01:26:24.554Z,59.33
2018-05-21T01:27:24.541Z,59.43
2018-05-21T01:28:24.530Z,59.62
2018-05-21T01:29:24.514Z,59.62
2018-05-21T01:30:24.488Z,59.52
2018-05-21T01:31:24.481Z,59.72
2018-05-21T01:32:24.462Z,59.62
2018-05-21T01:33:24.450Z,59.52
2018-05-21T01:34:24.438Z,59.81
2018-05-21T01:35:24.417Z,59.05
2018-05-21T01:36:24.412Z,59.43
2018-05-21T01:37:24.388Z,59.91
2018-05-21T01:38:24.378Z,58.56
2018-05-21T01:39:24.361Z,58.56
2018-05-21T01:40:24.348Z,59.05
2018-05-21T01:41:24.333Z,58.95
2018-05-21T01:42:24.317Z,58.86
2018-05-21T01:43:24.305Z,58.86
2018-05-21T01:44:24.283Z,59.23
2018-05-21T01:45:24.270Z,58.86
2018-05-21T01:46:24.274Z,58.86
2018-05-21T01:47:24.245Z,59.23
2018-05-21T01:48:24.233Z,59.05
2018-05-21T01:49:24.209Z,58.56
2018-05-21T01:50:24.199Z,58.95
2018-05-21T01:51:24.183Z,59.62
2018-05-21T01:52:24.237Z,59.72
2018-05-21T01:53:24.154Z,59.72
2018-05-21T01:54:24.138Z,59.23
2018-05-21T01:55:24.130Z,59.33
2018-05-21T01:56:24.111Z,59.33
2018-05-21T01:57:24.099Z,59.81
2018-05-21T01:58:24.084Z,59.23
2018-05-21T01:59:24.066Z,59.43
2018-05-21T02:00:24.101Z,59.33
2018-05-21T02:01:24.040Z,59.23
2018-05-21T02:02:24.022Z,60.00
2018-05-21T02:03:24.003Z,60.00
2018-05-21T02:04:23.990Z,59.43
2018-05-21T02:05:24.005Z,59.91
2018-05-21T02:06:23.965Z,59.43
2018-05-21T02:07:23.950Z,59.72
2018-05-21T02:08:24.019Z,59.33
2018-05-21T02:09:23.916Z,59.33
2018-05-21T02:10:23.899Z,59.33
2018-05-21T02:11:23.886Z,60.10
2018-05-21T02:12:23.870Z,60.10
2018-05-21T02:13:23.856Z,59.69
2018-05-21T02:14:23.844Z,59.78
2018-05-21T02:15:23.829Z,59.78
2018-05-21T02:16:23.814Z,59.81
2018-05-21T02:17:23.798Z,59.97
2018-05-21T02:18:23.790Z,60.06
2018-05-21T02:19:23.764Z,60.06
2018-05-21T02:20:23.755Z,59.97
2018-05-21T02:21:23.743Z,59.78
2018-05-21T02:22:23.720Z,59.97
2018-05-21T02:23:23.713Z,60.06
2018-05-21T02:24:23.697Z,59.49
2018-05-21T02:25:23.677Z,60.16
2018-05-21T02:26:23.659Z,60.45
2018-05-21T02:27:23.648Z,60.06
2018-05-21T02:28:23.637Z,59.97
2018-05-21T02:29:23.615Z,60.55
2018-05-21T02:30:23.620Z,60.16
2018-05-21T02:31:23.582Z,59.88
2018-05-21T02:32:23.572Z,59.49
2018-05-21T02:33:23.561Z,59.97
2018-05-21T02:34:23.543Z,60.06
2018-05-21T02:35:23.532Z,59.69
2018-05-21T02:36:23.516Z,59.69
2018-05-21T02:37:23.498Z,60.64
2018-05-21T02:38:23.479Z,60.45
2018-05-21T02:39:23.466Z,60.74
2018-05-21T02:40:23.449Z,60.64
2018-05-21T02:41:23.438Z,60.55
2018-05-21T02:42:23.421Z,60.35
2018-05-21T02:43:23.403Z,60.83
2018-05-21T02:44:23.399Z,60.64
2018-05-21T02:45:23.373Z,60.74
2018-05-21T02:46:23.365Z,60.45
2018-05-21T02:47:23.347Z,60.74
2018-05-21T02:48:23.329Z,60.64
2018-05-21T02:49:23.324Z,60.64
2018-05-21T02:50:23.303Z,60.35
2018-05-21T02:51:23.289Z,61.02
2018-05-21T02:52:23.282Z,61.12
2018-05-21T02:53:23.255Z,60.93
2018-05-21T02:54:23.250Z,61.41
2018-05-21T02:55:23.223Z,61.41
2018-05-21T02:56:23.211Z,61.12
2018-05-21T02:57:23.194Z,61.22
2018-05-21T02:58:23.187Z,61.12
2018-05-21T02:59:23.963Z,61.12
2018-05-21T03:00:23.158Z,61.22
2018-05-21T03:01:23.137Z,61.60
2018-05-21T03:02:23.135Z,61.60
2018-05-21T03:03:23.104Z,61.41
2018-05-21T03:04:23.092Z,61.51
2018-05-21T03:05:23.079Z,61.02
2018-05-21T03:06:23.066Z,61.31
2018-05-21T03:07:23.047Z,61.12
2018-05-21T03:08:23.030Z,61.51
2018-05-21T03:09:23.013Z,61.41
2018-05-21T03:10:22.996Z,62.27
2018-05-21T03:11:22.990Z,62.17
2018-05-21T03:12:22.963Z,62.08
2018-05-21T03:13:22.957Z,62.17
2018-05-21T03:14:22.937Z,62.08
2018-05-21T03:15:22.923Z,62.17
2018-05-21T03:16:22.909Z,61.41
2018-05-21T03:17:22.898Z,61.98
2018-05-21T03:18:22.920Z,61.98
2018-05-21T03:19:22.863Z,62.17
2018-05-21T03:20:22.909Z,62.17
2018-05-21T03:21:22.830Z,61.88
2018-05-21T03:22:22.814Z,61.79
2018-05-21T03:23:22.807Z,61.88
2018-05-21T03:24:22.785Z,62.17
2018-05-21T03:25:22.778Z,61.85
2018-05-21T03:26:22.756Z,62.04
2018-05-21T03:27:22.738Z,61.98
2018-05-21T03:28:22.731Z,61.88
2018-05-21T03:29:22.711Z,61.88
2018-05-21T03:30:22.700Z,62.08
2018-05-21T03:31:22.683Z,62.04
2018-05-21T03:32:22.684Z,61.98
2018-05-21T03:33:22.649Z,61.69
2018-05-21T03:34:22.633Z,61.88
2018-05-21T03:35:22.638Z,62.08
2018-05-21T03:36:22.619Z,62.04
2018-05-21T03:37:22.585Z,61.88
2018-05-21T03:38:22.582Z,62.08
2018-05-21T03:39:22.566Z,62.08
2018-05-21T03:40:22.542Z,61.66
2018-05-21T03:41:22.528Z,61.76
2018-05-21T03:42:22.514Z,61.98
2018-05-21T03:43:22.497Z,61.69
2018-05-21T03:44:22.477Z,61.98
2018-05-21T03:45:22.466Z,61.76
2018-05-21T03:46:22.452Z,62.08
2018-05-21T03:47:22.435Z,61.79
2018-05-21T03:48:22.423Z,62.08
2018-05-21T03:49:22.405Z,61.88
2018-05-21T03:50:22.391Z,61.69
2018-05-21T03:51:22.381Z,61.79
2018-05-21T03:52:22.359Z,61.98
2018-05-21T03:53:22.353Z,62.62
2018-05-21T03:54:22.333Z,62.37
2018-05-21T03:55:22.323Z,62.55
2018-05-21T03:56:22.307Z,62.17
2018-05-21T03:57:22.285Z,62.08
2018-05-21T03:58:22.266Z,62.27
2018-05-21T03:59:22.261Z,62.08
2018-05-21T04:00:22.247Z,62.17
2018-05-21T04:01:22.222Z,62.08
2018-05-21T04:02:22.215Z,61.98
2018-05-21T04:03:22.194Z,62.46
2018-05-21T04:04:22.275Z,61.98
2018-05-21T04:05:22.170Z,62.17
2018-05-21T04:06:22.154Z,62.08
2018-05-21T04:07:22.140Z,62.08
2018-05-21T04:08:22.130Z,62.08
2018-05-21T04:09:22.101Z,62.17
2018-05-21T04:10:22.094Z,62.37
2018-05-21T04:11:22.067Z,62.17
2018-05-21T04:12:22.049Z,62.17
2018-05-21T04:13:22.037Z,62.08
2018-05-21T04:14:22.044Z,61.88
2018-05-21T04:15:22.014Z,62.08
2018-05-21T04:16:21.997Z,62.08
2018-05-21T04:17:22.033Z,61.98
2018-05-21T04:18:21.963Z,62.08
2018-05-21T04:19:21.956Z,62.08
2018-05-21T04:20:21.943Z,62.46
2018-05-21T04:21:21.919Z,61.98
2018-05-21T04:22:21.917Z,62.37
2018-05-21T04:23:21.903Z,62.27
2018-05-21T04:24:21.879Z,61.98
2018-05-21T04:25:21.862Z,62.17
2018-05-21T04:26:21.844Z,62.17
2018-05-21T04:27:21.832Z,62.27
2018-05-21T04:28:21.822Z,62.17
2018-05-21T04:29:21.797Z,62.27
2018-05-21T04:30:21.786Z,62.27
2018-05-21T04:31:21.767Z,61.98
2018-05-21T04:32:21.751Z,62.17
2018-05-21T04:33:21.739Z,62.17
2018-05-21T04:34:21.736Z,62.08
2018-05-21T04:35:21.699Z,62.27
2018-05-21T04:36:21.772Z,62.27
2018-05-21T04:37:21.675Z,61.98
2018-05-21T04:38:21.660Z,62.08
2018-05-21T04:39:21.691Z,62.27
2018-05-21T04:40:21.629Z,61.98
2018-05-21T04:41:21.621Z,62.08
2018-05-21T04:42:21.607Z,62.37
2018-05-21T04:43:21.590Z,62.46
2018-05-21T04:44:21.564Z,62.17
2018-05-21T04:45:21.553Z,62.08
2018-05-21T04:46:21.541Z,62.65
2018-05-21T04:47:21.527Z,62.08
2018-05-21T04:48:21.507Z,62.17
2018-05-21T04:49:21.503Z,62.46
2018-05-21T04:50:21.501Z,62.20
2018-05-21T04:51:21.482Z,62.40
2018-05-21T04:52:21.470Z,62.20
2018-05-21T04:53:21.431Z,62.20
2018-05-21T04:54:21.416Z,62.20
2018-05-21T04:55:21.407Z,62.40
2018-05-21T04:56:21.389Z,62.49
2018-05-21T04:57:21.382Z,62.20
2018-05-21T04:58:21.365Z,62.49
2018-05-21T04:59:21.351Z,62.40
2018-05-21T05:00:21.346Z,62.49
2018-05-21T05:01:21.326Z,62.30
2018-05-21T05:02:21.313Z,62.49
2018-05-21T05:03:21.288Z,62.20
2018-05-21T05:04:21.281Z,62.01
2018-05-21T05:05:21.251Z,62.11
2018-05-21T05:06:21.248Z,62.11
2018-05-21T05:07:21.236Z,62.01
2018-05-21T05:08:21.218Z,62.20
2018-05-21T05:09:21.200Z,62.59
2018-05-21T05:10:21.185Z,62.11
2018-05-21T05:11:21.163Z,62.23
2018-05-21T05:12:21.155Z,62.14
2018-05-21T05:13:21.144Z,62.52
2018-05-21T05:14:21.133Z,62.52
2018-05-21T05:15:21.126Z,62.33
2018-05-21T05:16:21.145Z,62.04
2018-05-21T05:17:21.105Z,62.52
2018-05-21T05:18:21.069Z,62.43
2018-05-21T05:19:21.056Z,63.00
2018-05-21T05:20:21.052Z,62.43
2018-05-21T05:21:21.035Z,62.33
2018-05-21T05:22:21.037Z,62.62
2018-05-21T05:23:20.998Z,62.23
2018-05-21T05:24:20.982Z,63.00
2018-05-21T05:25:20.959Z,62.43
2018-05-21T05:26:20.944Z,62.71
2018-05-21T05:27:20.942Z,62.43
2018-05-21T05:28:20.919Z,62.62
2018-05-21T05:29:20.918Z,62.62
2018-05-21T05:30:20.887Z,62.23
2018-05-21T05:31:20.869Z,62.52
2018-05-21T05:32:20.850Z,62.62
2018-05-21T05:33:20.853Z,62.46
2018-05-21T05:34:20.831Z,62.43
2018-05-21T05:35:20.810Z,62.33
2018-05-21T05:36:20.821Z,62.46
2018-05-21T05:37:20.781Z,62.65
2018-05-21T05:38:20.770Z,62.65
2018-05-21T05:39:20.761Z,62.65
2018-05-21T05:40:20.740Z,62.55
2018-05-21T05:41:20.731Z,62.65
2018-05-21T05:42:20.706Z,62.46
2018-05-21T05:43:20.692Z,63.03
2018-05-21T05:44:20.688Z,62.84
2018-05-21T05:45:20.677Z,62.26
2018-05-21T05:46:20.659Z,62.26
2018-05-21T05:47:20.642Z,62.17
2018-05-21T05:48:20.629Z,62.07
2018-05-21T05:49:20.606Z,62.36
2018-05-21T05:50:20.596Z,62.65
2018-05-21T05:51:20.603Z,62.07
2018-05-21T05:52:20.570Z,62.17
2018-05-21T05:53:20.550Z,62.30
2018-05-21T05:54:20.544Z,62.39
2018-05-21T05:55:20.526Z,62.30
2018-05-21T05:56:20.508Z,62.20
2018-05-21T05:57:20.510Z,62.30
2018-05-21T05:58:20.483Z,62.20
2018-05-21T05:59:20.473Z,62.30
2018-05-21T06:00:20.453Z,62.01
2018-05-21T06:01:20.433Z,62.68
2018-05-21T06:02:20.428Z,62.30
2018-05-21T06:03:20.504Z,62.39
2018-05-21T06:04:20.393Z,62.59
2018-05-21T06:05:20.380Z,62.59
2018-05-21T06:06:20.378Z,62.04
2018-05-21T06:07:20.384Z,62.13
2018-05-21T06:08:20.332Z,62.04
2018-05-21T06:09:20.320Z,62.42
2018-05-21T06:10:20.316Z,62.23
2018-05-21T06:11:20.285Z,61.46
2018-05-21T06:12:20.291Z,61.66
2018-05-21T06:13:20.261Z,61.37
2018-05-21T06:14:20.250Z,61.49
2018-05-21T06:15:20.250Z,61.02
2018-05-21T06:16:20.250Z,60.72
2018-05-21T06:17:20.209Z,60.82
2018-05-21T06:18:20.195Z,60.72
2018-05-21T06:19:20.182Z,60.05
2018-05-21T06:20:20.158Z,59.89
2018-05-21T06:21:20.169Z,60.08
2018-05-21T06:22:20.141Z,59.41
2018-05-21T06:23:20.127Z,59.70
2018-05-21T06:24:20.114Z,59.22
2018-05-21T06:25:20.105Z,58.55
2018-05-21T06:26:20.112Z,59.34
2018-05-21T06:27:20.073Z,58.58
2018-05-21T06:28:20.061Z,58.51
2018-05-21T06:29:20.093Z,57.93
2018-05-21T06:30:20.038Z,57.84
2018-05-21T06:31:20.024Z,56.43
2018-05-21T06:32:20.023Z,56.45
2018-05-21T06:33:20.052Z,54.75
2018-05-21T06:34:20.034Z,52.56
2018-05-21T06:35:19.971Z,50.90
2018-05-21T06:36:19.964Z,47.87
2018-05-21T06:37:19.949Z,45.35
2018-05-21T06:38:19.923Z,42.13
2018-05-21T06:39:19.906Z,39.74
2018-05-21T06:40:19.911Z,37.30
2018-05-21T06:41:19.883Z,35.11
2018-05-21T06:42:19.896Z,32.73
2018-05-21T06:43:19.867Z,31.66
2018-05-21T06:44:19.856Z,31.19
2018-05-21T06:45:19.838Z,30.99
2018-05-21T06:46:19.856Z,31.09
2018-05-21T06:47:19.824Z,30.73
2018-05-21T06:48:19.803Z,29.67
2018-05-21T06:49:19.786Z,29.08
2018-05-21T06:50:19.803Z,28.97
2018-05-21T06:51:19.767Z,28.99
2018-05-21T06:52:19.823Z,28.43
2018-05-21T06:53:19.768Z,27.47
2018-05-21T06:54:19.740Z,27.27
2018-05-21T06:55:19.725Z,27.26
2018-05-21T06:56:19.731Z,27.84
2018-05-21T06:57:19.711Z,27.93
2018-05-21T06:58:19.700Z,27.84
2018-05-21T06:59:19.709Z,27.73
2018-05-21T07:00:19.724Z,28.22
2018-05-21T07:01:19.719Z,28.32
2018-05-21T07:02:19.669Z,28.20
2018-05-21T07:03:19.683Z,28.50
2018-05-21T07:04:19.656Z,28.88
2018-05-21T07:05:19.640Z,28.69
2018-05-21T07:06:19.648Z,28.50
2018-05-21T07:07:19.626Z,28.50
2018-05-21T07:08:19.628Z,28.78
2018-05-21T07:09:19.629Z,28.89
2018-05-21T07:10:19.609Z,29.64
2018-05-21T07:11:19.661Z,30.13
2018-05-21T07:12:19.613Z,30.05
2018-05-21T07:13:19.605Z,30.03
2018-05-21T07:14:19.597Z,29.95
2018-05-21T07:15:19.580Z,29.92
2018-05-21T07:16:19.572Z,30.77
2018-05-21T07:17:19.587Z,31.53
2018-05-21T07:18:19.653Z,32.23
2018-05-21T07:19:19.585Z,31.66
2018-05-21T07:20:19.571Z,30.90
2018-05-21T07:21:19.555Z,30.98
2018-05-21T07:22:19.571Z,31.09
2018-05-21T07:23:19.551Z,31.73
2018-05-21T07:24:19.608Z,32.31
2018-05-21T07:25:19.533Z,32.42
2018-05-21T07:26:19.525Z,32.15
2018-05-21T07:27:19.523Z,31.66
2018-05-21T07:28:19.521Z,31.48
2018-05-21T07:29:19.520Z,31.46
2018-05-21T07:30:19.515Z,32.89
2018-05-21T07:31:19.517Z,33.09
2018-05-21T07:32:19.503Z,33.58
2018-05-21T07:33:19.570Z,34.32
2018-05-21T07:34:19.491Z,35.86
2018-05-21T07:35:19.488Z,35.94
2018-05-21T07:36:19.488Z,36.02
2018-05-21T07:37:19.474Z,36.89
2018-05-21T07:38:19.477Z,37.18
2018-05-21T07:39:19.468Z,37.45
2018-05-21T07:40:19.479Z,38.12
2018-05-21T07:41:19.460Z,38.87
2018-05-21T07:42:19.505Z,39.45
2018-05-21T07:43:19.454Z,40.19
2018-05-21T07:44:19.466Z,41.06
2018-05-21T07:45:19.444Z,41.82
2018-05-21T07:46:19.447Z,42.66
2018-05-21T07:47:19.456Z,43.27
2018-05-21T07:48:19.447Z,43.54
2018-05-21T07:49:19.433Z,44.19
2018-05-21T07:50:19.426Z,44.77
2018-05-21T07:51:19.430Z,45.04
2018-05-21T07:52:19.417Z,46.00
2018-05-21T07:53:19.439Z,45.69
2018-05-21T07:54:19.403Z,46.56
2018-05-21T07:55:19.431Z,47.31
2018-05-21T07:56:19.410Z,48.28
2018-05-21T07:57:19.405Z,48.83
2018-05-21T07:58:19.475Z,49.12
2018-05-21T07:59:19.394Z,49.80
2018-05-21T08:00:19.403Z,49.32
2018-05-21T08:01:19.420Z,49.99
2018-05-21T08:02:19.390Z,50.54
2018-05-21T08:03:19.382Z,50.86
2018-05-21T08:04:19.365Z,51.05
2018-05-21T08:05:19.447Z,51.44
2018-05-21T08:06:19.399Z,50.74
2018-05-21T08:07:19.374Z,50.74
2018-05-21T08:08:19.376Z,51.12
2018-05-21T08:09:19.372Z,51.41
2018-05-21T08:10:19.368Z,51.51
2018-05-21T08:11:19.402Z,51.61
2018-05-21T08:12:19.347Z,51.70
2018-05-21T08:13:19.339Z,51.70
2018-05-21T08:14:19.339Z,52.73
2018-05-21T08:15:19.328Z,52.45
2018-05-21T08:16:19.318Z,52.45
2018-05-21T08:17:19.330Z,52.76
2018-05-21T08:18:19.329Z,52.86
2018-05-21T08:19:19.323Z,52.57
2018-05-21T08:20:19.310Z,52.28
2018-05-21T08:21:19.299Z,51.80
2018-05-21T08:22:19.339Z,51.80
2018-05-21T08:23:19.280Z,52.67
2018-05-21T08:24:19.275Z,52.64
2018-05-21T08:25:19.268Z,53.13
2018-05-21T08:26:19.265Z,53.63
2018-05-21T08:27:19.247Z,53.25
2018-05-21T08:28:19.237Z,52.86
2018-05-21T08:29:19.244Z,52.67
2018-05-21T08:30:19.226Z,52.76
2018-05-21T08:31:19.220Z,52.86
2018-05-21T08:32:19.231Z,52.95
2018-05-21T08:33:19.208Z,52.95
2018-05-21T08:34:19.190Z,53.63
2018-05-21T08:35:19.186Z,53.25
2018-05-21T08:36:19.181Z,53.34
2018-05-21T08:37:19.204Z,53.08
2018-05-21T08:38:19.166Z,52.28
2018-05-21T08:39:19.162Z,52.19
2018-05-21T08:40:19.144Z,51.89
2018-05-21T08:41:19.168Z,52.19
2018-05-21T08:42:19.131Z,53.13
2018-05-21T08:43:19.130Z,53.70
2018-05-21T08:44:19.110Z,53.44
2018-05-21T08:45:19.116Z,53.53
2018-05-21T08:46:19.115Z,52.95
2018-05-21T08:47:19.090Z,52.95
2018-05-21T08:48:19.071Z,52.76
2018-05-21T08:49:19.081Z,52.76
2018-05-21T08:50:19.070Z,52.95
2018-05-21T08:51:19.046Z,52.76
2018-05-21T08:52:19.070Z,51.89
2018-05-21T08:53:19.065Z,52.67
2018-05-21T08:54:19.026Z,52.57
2018-05-21T08:55:19.054Z,52.11
2018-05-21T08:56:19.006Z,51.92
2018-05-21T08:57:18.987Z,51.53
2018-05-21T08:58:18.990Z,52.40
2018-05-21T08:59:18.987Z,51.25
2018-05-21T09:00:18.970Z,52.01
2018-05-21T09:01:18.948Z,51.53
2018-05-21T09:02:18.949Z,51.63
2018-05-21T09:03:18.979Z,52.21
2018-05-21T09:04:18.921Z,51.73
2018-05-21T09:05:18.941Z,51.73
2018-05-21T09:06:18.908Z,51.15
2018-05-21T09:07:18.894Z,51.17
2018-05-21T09:08:18.906Z,51.15
2018-05-21T09:09:18.883Z,50.98
2018-05-21T09:10:18.870Z,51.27
2018-05-21T09:11:18.895Z,49.63
2018-05-21T09:12:18.848Z,49.73
2018-05-21T09:13:18.851Z,49.70
2018-05-21T09:14:18.850Z,49.80
2018-05-21T09:15:18.813Z,50.18
2018-05-21T09:16:19.035Z,49.80
2018-05-21T09:17:18.801Z,49.44
2018-05-21T09:18:18.801Z,49.73
2018-05-21T09:19:18.783Z,49.53
2018-05-21T09:20:18.761Z,50.18
2018-05-21T09:21:18.745Z,51.25
2018-05-21T09:22:18.762Z,51.17
2018-05-21T09:23:18.739Z,50.98
2018-05-21T09:24:18.726Z,50.98
2018-05-21T09:25:18.717Z,49.34
2018-05-21T09:26:18.711Z,49.24
2018-05-21T09:27:18.693Z,49.05
2018-05-21T09:28:18.726Z,49.53
2018-05-21T09:29:18.691Z,49.82
2018-05-21T09:30:18.660Z,49.53
2018-05-21T09:31:18.691Z,48.66
2018-05-21T09:32:18.672Z,47.60
2018-05-21T09:33:18.630Z,47.91
2018-05-21T09:34:18.625Z,47.81
2018-05-21T09:35:18.619Z,47.43
2018-05-21T09:36:18.604Z,47.81
2018-05-21T09:37:18.600Z,47.81
2018-05-21T09:38:18.607Z,48.30
2018-05-21T09:39:18.591Z,47.53
2018-05-21T09:40:18.574Z,46.66
2018-05-21T09:41:18.554Z,46.27
2018-05-21T09:42:18.555Z,46.27
2018-05-21T09:43:18.538Z,46.73
2018-05-21T09:44:18.559Z,46.64
2018-05-21T09:45:18.543Z,46.56
2018-05-21T09:46:18.519Z,45.09
2018-05-21T09:47:18.499Z,44.63
2018-05-21T09:48:18.497Z,44.92
2018-05-21T09:49:18.489Z,45.01
2018-05-21T09:50:18.469Z,44.73
2018-05-21T09:51:18.473Z,44.73
2018-05-21T09:52:18.463Z,44.63
2018-05-21T09:53:18.457Z,44.82
2018-05-21T09:54:18.458Z,45.21
2018-05-21T09:55:18.413Z,44.73
2018-05-21T09:56:18.447Z,44.53
2018-05-21T09:57:18.393Z,43.98
2018-05-21T09:58:18.389Z,43.18
2018-05-21T09:59:18.379Z,43.28
2018-05-21T10:00:18.367Z,43.18
2018-05-21T10:01:18.349Z,43.08
2018-05-21T10:02:18.346Z,43.28
2018-05-21T10:03:18.353Z,43.37
2018-05-21T10:04:18.348Z,43.85
2018-05-21T10:05:18.324Z,41.93
2018-05-21T10:06:18.337Z,41.75
2018-05-21T10:07:18.298Z,41.27
2018-05-21T10:08:18.297Z,40.57
2018-05-21T10:09:18.285Z,41.63
2018-05-21T10:10:18.261Z,41.93
2018-05-21T10:11:18.269Z,41.94
2018-05-21T10:12:18.272Z,41.66
2018-05-21T10:13:18.252Z,41.36
2018-05-21T10:14:18.233Z,40.59
2018-05-21T10:15:18.230Z,40.50
2018-05-21T10:16:18.219Z,41.19
2018-05-21T10:17:18.210Z,40.52
2018-05-21T10:18:18.205Z,40.52
2018-05-21T10:19:18.306Z,40.61
2018-05-21T10:20:18.175Z,40.71
2018-05-21T10:21:18.210Z,40.03
2018-05-21T10:22:18.149Z,40.42
2018-05-21T10:23:18.152Z,40.90
2018-05-21T10:24:18.133Z,40.61
2018-05-21T10:25:18.192Z,40.42
2018-05-21T10:26:18.119Z,40.61
2018-05-21T10:27:18.120Z,40.13
2018-05-21T10:28:18.124Z,40.03
2018-05-21T10:29:18.105Z,39.55
2018-05-21T10:30:18.110Z,39.06
2018-05-21T10:31:18.094Z,39.26
2018-05-21T10:32:18.098Z,39.16
2018-05-21T10:33:18.086Z,39.36
2018-05-21T10:34:18.040Z,39.47
2018-05-21T10:35:18.046Z,38.60
2018-05-21T10:36:18.040Z,38.70
2018-05-21T10:37:18.044Z,38.21
2018-05-21T10:38:18.001Z,38.58
2018-05-21T10:39:18.040Z,38.87
2018-05-21T10:40:18.012Z,38.97
2018-05-21T10:41:17.981Z,38.78
2018-05-21T10:42:18.015Z,37.90
2018-05-21T10:43:17.977Z,37.71
2018-05-21T10:44:17.972Z,37.81
2018-05-21T10:45:17.951Z,38.10
2018-05-21T10:46:17.942Z,37.71
2018-05-21T10:47:17.935Z,36.46
2018-05-21T10:48:17.915Z,36.86
2018-05-21T10:49:17.973Z,36.76
2018-05-21T10:50:17.925Z,36.47
2018-05-21T10:51:17.904Z,36.47
2018-05-21T10:52:17.871Z,36.18
2018-05-21T10:53:17.884Z,36.38
2018-05-21T10:54:17.880Z,36.08
2018-05-21T10:55:17.881Z,35.41
2018-05-21T10:56:17.906Z,35.12
2018-05-21T10:57:17.848Z,35.60
2018-05-21T10:58:17.840Z,35.68
2018-05-21T10:59:17.840Z,36.36
2018-05-21T11:00:17.824Z,36.84
2018-05-21T11:01:17.861Z,37.04
2018-05-21T11:02:17.805Z,35.97
2018-05-21T11:03:17.780Z,35.00
2018-05-21T11:04:17.773Z,35.10
2018-05-21T11:05:17.754Z,35.99
2018-05-21T11:06:17.804Z,35.70
2018-05-21T11:07:17.753Z,35.70
2018-05-21T11:08:17.744Z,35.41
2018-05-21T11:09:17.736Z,35.21
2018-05-21T11:10:17.774Z,35.88
2018-05-21T11:11:17.747Z,35.58
2018-05-21T11:12:17.773Z,35.97
2018-05-21T11:13:17.689Z,36.36
2018-05-21T11:14:17.683Z,36.26
2018-05-21T11:15:17.697Z,36.38
2018-05-21T11:16:17.678Z,36.38
2018-05-21T11:17:17.639Z,36.76
2018-05-21T11:18:17.637Z,36.08
2018-05-21T11:19:17.638Z,35.99
2018-05-21T11:20:17.626Z,36.00
2018-05-21T11:21:17.608Z,35.23
2018-05-21T11:22:17.609Z,34.63
2018-05-21T11:23:17.625Z,35.04
2018-05-21T11:24:17.594Z,34.15
2018-05-21T11:25:17.577Z,34.73
2018-05-21T11:26:17.573Z,35.41
2018-05-21T11:27:17.570Z,35.41
2018-05-21T11:28:17.574Z,35.12
2018-05-21T11:29:17.553Z,35.31
2018-05-21T11:30:17.545Z,34.54
2018-05-21T11:31:17.519Z,34.44
2018-05-21T11:32:17.520Z,34.63
2018-05-21T11:33:17.534Z,34.92
2018-05-21T11:34:17.512Z,35.13
2018-05-21T11:35:17.500Z,34.27
2018-05-21T11:36:17.476Z,33.69
2018-05-21T11:37:17.460Z,33.01
2018-05-21T11:38:17.464Z,33.10
2018-05-21T11:39:17.471Z,33.29
2018-05-21T11:40:17.453Z,33.29
2018-05-21T11:41:17.442Z,33.20
2018-05-21T11:42:17.429Z,33.39
2018-05-21T11:43:17.417Z,34.36
2018-05-21T11:44:17.410Z,33.87
2018-05-21T11:45:17.425Z,34.36
2018-05-21T11:46:17.460Z,34.55
2018-05-21T11:47:17.399Z,34.75
2018-05-21T11:48:17.380Z,34.75
2018-05-21T11:49:17.363Z,34.94
2018-05-21T11:50:17.365Z,34.65
2018-05-21T11:51:17.337Z,34.75
2018-05-21T11:52:17.347Z,34.65
2018-05-21T11:53:17.324Z,33.97
2018-05-21T11:54:17.321Z,34.07
2018-05-21T11:55:17.322Z,32.91
2018-05-21T11:56:17.312Z,33.78
2018-05-21T11:57:17.290Z,33.59
2018-05-21T11:58:17.270Z,33.10
2018-05-21T11:59:17.279Z,33.10
2018-05-21T12:00:17.260Z,32.81
2018-05-21T12:01:17.266Z,32.91
2018-05-21T12:02:17.238Z,33.29
2018-05-21T12:03:17.233Z,33.39
2018-05-21T12:04:17.233Z,32.91
2018-05-21T12:05:17.243Z,32.91
2018-05-21T12:06:17.231Z,33.01
2018-05-21T12:07:17.245Z,33.10
2018-05-21T12:08:17.187Z,32.52
2018-05-21T12:09:17.180Z,32.52
2018-05-21T12:10:17.193Z,32.81
2018-05-21T12:11:17.176Z,32.62
2018-05-21T12:12:17.199Z,32.04
2018-05-21T12:13:17.161Z,32.52
2018-05-21T12:14:17.140Z,32.52
2018-05-21T12:15:17.121Z,33.18
2018-05-21T12:16:17.120Z,33.57
2018-05-21T12:17:17.118Z,33.28
2018-05-21T12:18:17.114Z,33.28
2018-05-21T12:19:17.102Z,33.57
2018-05-21T12:20:17.106Z,33.76
2018-05-21T12:21:17.066Z,33.78
2018-05-21T12:22:17.065Z,32.91
2018-05-21T12:23:17.102Z,33.49
2018-05-21T12:24:17.051Z,33.20
2018-05-21T12:25:17.063Z,33.39
2018-05-21T12:26:17.052Z,33.01
2018-05-21T12:27:17.014Z,32.71
2018-05-21T12:28:17.088Z,32.33
2018-05-21T12:29:17.003Z,32.42
2018-05-21T12:30:17.012Z,32.52
2018-05-21T12:31:16.980Z,33.10
2018-05-21T12:32:17.001Z,32.71
2018-05-21T12:33:16.956Z,32.42
2018-05-21T12:34:16.971Z,32.42
2018-05-21T12:35:16.950Z,32.14
2018-05-21T12:36:16.945Z,32.42
2018-05-21T12:37:16.924Z,32.42
2018-05-21T12:38:16.990Z,32.71
2018-05-21T12:39:16.916Z,32.52
2018-05-21T12:40:16.933Z,32.62
2018-05-21T12:41:16.899Z,32.81
2018-05-21T12:42:16.880Z,32.44
2018-05-21T12:43:16.868Z,32.24
2018-05-21T12:44:16.864Z,32.54
2018-05-21T12:45:16.907Z,32.14
2018-05-21T12:46:16.868Z,30.98
2018-05-21T12:47:16.860Z,30.98
2018-05-21T12:48:16.823Z,31.57
2018-05-21T12:49:16.830Z,32.15
2018-05-21T12:50:16.829Z,32.15
2018-05-21T12:51:16.838Z,32.24
2018-05-21T12:52:16.794Z,32.92